Champaign, IL (61826)

4:43 AM CST on November 26, 2014 (GMT -0600)
Jefferson Middle School | Change Station
CLOSE
Current Station
Personal Weather Station
Location: Champaign, IL
Elevation: 728 ft
Nearby Weather Stations

Elev 728 ft 40.10 °N, 88.28 °W | Updated 6 minutes ago

Clear
Clear
21.5 °F
Feels Like 14 °F
N
6.0
Wind Variable Wind from ESE
Gusts 7.0 mph

Today
High -- | Low -- °F
--% Chance of Precip.
Yesterday
High -- | Low -- °F
Precip. -- in
6:50 AM 4:29 PM
Waxing Crescent, 18% visible
Pressure 30.16 in
Visibility 8.0 miles
Clouds Clear
Windchill 14 °F
Dew Point 20 °F
Humidity 92%
Rainfall 0.00 in
Snow Depth Not available.
UV 0 out of 12
Pollen .10 out of 12
Air Quality Not available.
Flu Activity Not available.
METAR KCMI 260953Z AUTO 10008KT 8SM CLR M06/M08 A3012 RMK AO2 SLP211 I1000 T10611078 $

More Conditions Fewer Conditions

Pressure 30.16 in
Visibility 8.0 miles
Clouds Clear
Windchill 14 °F
Dew Point 20 °F
Humidity 92%
Rainfall 0.00 in
Snow Depth Not available.
UV 0 out of 12
Pollen .10 out of 12
Air Quality Not available.
Flu Activity Not available.
METAR KCMI 260953Z AUTO 10008KT 8SM CLR M06/M08 A3012 RMK AO2 SLP211 I1000 T10611078 $

More Conditions Fewer Conditions

10-Day Weather Forecast

Almanac

Astronomy

Nov. 26, 2014 Rise Set
Actual Time
Civil Twilight
Nautical Twilight
Astronomical Twilight
Moon
Length of Visible Light
Length of Day
Tomorrow will be .
, % of the Moon is Illuminated

Today's Extremes

State Highs State Lows

Community

WunderPhotos

Upload Photos

1,773,708 photos uploaded!

WunderBlogs® & News

Nearby

Air Quality

  Air Quality AQ Index Pollutant
Not available.

Snow Depth

Station Depth Elevation

Earthquake Activity

City Distance Mag. Time & Date
Minimum magnitude displayed is 2.5.

Coastal Water Temperatures

Place Temperature

Nearby Weather Stations